Summary for MDHALE1

Southwest Baltimore Co., Halethorpe, MD 21227
Join the PWSweather.com Network
View data in metric units
Latest Conditions
Updated 4:15:05 PM EDT Saturday, Apr 19, 2014
Data Currently Today's Max Today's Min Today's Average
Temperature 69.1°F20.6°C 69.6°F20.9°C 39.7°F4.3°C 50.7°F10.4°C
Dew Point 30.8°F-0.7°C 41.4°F5.2°C 30.8°F-0.7°C 36.7°F2.6°C
Winds 6.0 mph NNE9.7 kmh NNE 12.1 mph NE19.5 kmh NE CalmCalm 2.3 mph3.7 kmh
Wind Gusts 9.1 mph14.6 kmh 18.2 mph29.3 kmh -- 3.6 mph5.8 kmh
Humidity 24% 86% 24% 64%
Pressure 30.21 in1023.0 mb 30.30 in1026.1 mb 30.21 in1023.0 mb 30.26 in1024.7 mb
Precipitation 0.00 in0.0 mm - - 0.00 in0.0 mm
Trends
 
Station Profile
Southwest Baltimore Co.Halethorpe, MD 21227

Lat: 39.236, Lon: -76.697
Elevation: 86
Station Type: Davis Vantage Pro2+

http://home.comcast.net/~halethorpe_weather/index.html

Detailed Summary for Sat, Apr 19, 2014
Hour (EDT) Temperature Dew Point Humidity Winds Wind Gusts Pressure Precip Precip Rate Daily Precip Total
04:15 PM 69.1°F20.6°C 30.8°F-0.7°C 24% 6.0 mph NNE9.7 kmh NNE 9.1 mph14.6 kmh 30.21 in1023.0 mb 0.00 in0.0 mm 0.00 in/hr0.0 mm/hr 0.00 in0.0 mm
03:30 PM 69.6°F20.9°C 35.1°F1.7°C 28% 7.7 mph NE12.4 kmh NE 11.4 mph18.3 kmh 30.22 in1023.4 mb 0.00 in0.0 mm 0.00 in/hr0.0 mm/hr 0.00 in0.0 mm
03:15 PM 69.2°F20.7°C 33.8°F1.0°C 27% 3.9 mph NNE6.3 kmh NNE 8.0 mph12.9 kmh 30.22 in1023.4 mb 0.00 in0.0 mm 0.00 in/hr0.0 mm/hr 0.00 in0.0 mm
03:00 PM 69.4°F20.8°C 33.0°F0.6°C 26% 6.1 mph N9.8 kmh N 10.3 mph16.6 kmh 30.22 in1023.4 mb 0.00 in0.0 mm 0.00 in/hr0.0 mm/hr 0.00 in0.0 mm
02:45 PM 69.6°F20.9°C 34.1°F1.2°C 27% 2.0 mph NE3.2 kmh NE 6.8 mph10.9 kmh 30.23 in1023.7 mb 0.00 in0.0 mm 0.00 in/hr0.0 mm/hr 0.00 in0.0 mm
02:00 PM 69.0°F20.6°C 34.5°F1.4°C 28% 9.1 mph N14.6 kmh N 18.2 mph29.3 kmh 30.23 in1023.7 mb 0.00 in0.0 mm 0.00 in/hr0.0 mm/hr 0.00 in0.0 mm
01:45 PM 67.9°F19.9°C 35.3°F1.8°C 30% 6.1 mph N9.8 kmh N 12.5 mph20.1 kmh 30.24 in1024.0 mb 0.00 in0.0 mm 0.00 in/hr0.0 mm/hr 0.00 in0.0 mm
01:15 PM 67.2°F19.6°C 36.3°F2.4°C 32% 9.6 mph ENE15.4 kmh ENE 11.4 mph18.3 kmh 30.25 in1024.4 mb 0.00 in0.0 mm 0.00 in/hr0.0 mm/hr 0.00 in0.0 mm
12:45 PM 66.6°F19.2°C 36.6°F2.6°C 33% 12.1 mph NE19.5 kmh NE 14.8 mph23.8 kmh 30.25 in1024.4 mb 0.00 in0.0 mm 0.00 in/hr0.0 mm/hr 0.00 in0.0 mm
12:15 PM 64.5°F18.1°C 39.0°F3.9°C 39% 7.5 mph ENE12.1 kmh ENE 11.4 mph18.3 kmh 30.26 in1024.7 mb 0.00 in0.0 mm 0.00 in/hr0.0 mm/hr 0.00 in0.0 mm
12:00 PM 63.7°F17.6°C 39.5°F4.2°C 41% 6.0 mph NE9.7 kmh NE 8.0 mph12.9 kmh 30.27 in1025.1 mb 0.00 in0.0 mm 0.00 in/hr0.0 mm/hr 0.00 in0.0 mm
11:45 AM 63.1°F17.3°C 40.2°F4.6°C 43% 2.4 mph ENE3.9 kmh ENE 5.7 mph9.2 kmh 30.28 in1025.4 mb 0.00 in0.0 mm 0.00 in/hr0.0 mm/hr 0.00 in0.0 mm
11:15 AM 61.3°F16.3°C 41.4°F5.2°C 48% 7.4 mph NE11.9 kmh NE 8.0 mph12.9 kmh 30.29 in1025.7 mb 0.00 in0.0 mm 0.00 in/hr0.0 mm/hr 0.00 in0.0 mm
11:00 AM 60.0°F15.6°C 39.7°F4.3°C 47% 5.4 mph ENE8.7 kmh ENE 8.0 mph12.9 kmh 30.30 in1026.1 mb 0.00 in0.0 mm 0.00 in/hr0.0 mm/hr 0.00 in0.0 mm
10:30 AM 57.6°F14.2°C 41.1°F5.1°C 54% 4.4 mph ENE7.1 kmh ENE 5.7 mph9.2 kmh 30.30 in1026.1 mb 0.00 in0.0 mm 0.00 in/hr0.0 mm/hr 0.00 in0.0 mm
10:15 AM 56.6°F13.7°C 40.6°F4.8°C 55% 6.7 mph ENE10.8 kmh ENE 9.1 mph14.6 kmh 30.30 in1026.1 mb 0.00 in0.0 mm 0.00 in/hr0.0 mm/hr 0.00 in0.0 mm
09:31 AM 51.1°F10.6°C 40.5°F4.7°C 67% Calm Calm -- 30.30 in1026.1 mb 0.00 in0.0 mm 0.00 in/hr0.0 mm/hr 0.00 in0.0 mm
09:00 AM 47.1°F8.4°C 38.5°F3.6°C 72% Calm Calm -- 30.29 in1025.7 mb 0.00 in0.0 mm 0.00 in/hr0.0 mm/hr 0.00 in0.0 mm
08:30 AM 45.3°F7.4°C 38.8°F3.8°C 78% Calm Calm -- 30.29 in1025.7 mb 0.00 in0.0 mm 0.00 in/hr0.0 mm/hr 0.00 in0.0 mm
08:15 AM 44.3°F6.8°C 39.8°F4.3°C 84% Calm Calm -- 30.29 in1025.7 mb 0.00 in0.0 mm 0.00 in/hr0.0 mm/hr 0.00 in0.0 mm
08:00 AM 43.1°F6.2°C 39.2°F4.0°C 86% Calm Calm -- 30.29 in1025.7 mb 0.00 in0.0 mm 0.00 in/hr0.0 mm/hr 0.00 in0.0 mm
07:15 AM 39.7°F4.3°C 35.9°F2.2°C 86% Calm Calm -- 30.27 in1025.1 mb 0.00 in0.0 mm 0.00 in/hr0.0 mm/hr 0.00 in0.0 mm
06:30 AM 39.9°F4.4°C 35.5°F1.9°C 84% Calm Calm -- 30.25 in1024.4 mb 0.00 in0.0 mm 0.00 in/hr0.0 mm/hr 0.00 in0.0 mm
06:15 AM 40.2°F4.6°C 35.7°F2.1°C 84% Calm Calm -- 30.25 in1024.4 mb 0.00 in0.0 mm 0.00 in/hr0.0 mm/hr 0.00 in0.0 mm
06:00 AM 40.4°F4.7°C 35.9°F2.2°C 84% Calm Calm -- 30.24 in1024.0 mb 0.00 in0.0 mm 0.00 in/hr0.0 mm/hr 0.00 in0.0 mm
05:45 AM 40.6°F4.8°C 35.9°F2.2°C 83% Calm Calm -- 30.24 in1024.0 mb 0.00 in0.0 mm 0.00 in/hr0.0 mm/hr 0.00 in0.0 mm
05:30 AM 40.8°F4.9°C 36.1°F2.3°C 83% Calm Calm -- 30.24 in1024.0 mb 0.00 in0.0 mm 0.00 in/hr0.0 mm/hr 0.00 in0.0 mm
05:15 AM 41.0°F5.0°C 36.2°F2.3°C 83% Calm Calm -- 30.23 in1023.7 mb 0.00 in0.0 mm 0.00 in/hr0.0 mm/hr 0.00 in0.0 mm
05:00 AM 41.1°F5.1°C 36.3°F2.4°C 83% Calm Calm -- 30.23 in1023.7 mb 0.00 in0.0 mm 0.00 in/hr0.0 mm/hr 0.00 in0.0 mm
04:45 AM 41.0°F5.0°C 36.2°F2.3°C 83% Calm Calm -- 30.23 in1023.7 mb 0.00 in0.0 mm 0.00 in/hr0.0 mm/hr 0.00 in0.0 mm
04:30 AM 40.9°F4.9°C 36.1°F2.3°C 83% Calm Calm -- 30.24 in1024.0 mb 0.00 in0.0 mm 0.00 in/hr0.0 mm/hr 0.00 in0.0 mm
04:15 AM 40.7°F4.8°C 36.0°F2.2°C 83% Calm Calm -- 30.24 in1024.0 mb 0.00 in0.0 mm 0.00 in/hr0.0 mm/hr 0.00 in0.0 mm
04:00 AM 40.8°F4.9°C 35.7°F2.1°C 82% Calm Calm -- 30.24 in1024.0 mb 0.00 in0.0 mm 0.00 in/hr0.0 mm/hr 0.00 in0.0 mm
03:30 AM 40.9°F4.9°C 35.5°F1.9°C 81% Calm Calm -- 30.24 in1024.0 mb 0.00 in0.0 mm 0.00 in/hr0.0 mm/hr 0.00 in0.0 mm
03:15 AM 40.9°F4.9°C 35.5°F1.9°C 81% Calm Calm -- 30.24 in1024.0 mb 0.00 in0.0 mm 0.00 in/hr0.0 mm/hr 0.00 in0.0 mm
03:00 AM 41.2°F5.1°C 35.5°F1.9°C 80% Calm Calm -- 30.25 in1024.4 mb 0.00 in0.0 mm 0.00 in/hr0.0 mm/hr 0.00 in0.0 mm
02:30 AM 41.8°F5.4°C 35.8°F2.1°C 79% Calm Calm -- 30.25 in1024.4 mb 0.00 in0.0 mm 0.00 in/hr0.0 mm/hr 0.00 in0.0 mm
02:00 AM 42.2°F5.7°C 35.8°F2.1°C 78% Calm Calm -- 30.26 in1024.7 mb 0.00 in0.0 mm 0.00 in/hr0.0 mm/hr 0.00 in0.0 mm
01:45 AM 42.6°F5.9°C 36.3°F2.4°C 78% Calm Calm -- 30.27 in1025.1 mb 0.00 in0.0 mm 0.00 in/hr0.0 mm/hr 0.00 in0.0 mm
01:30 AM 42.9°F6.1°C 35.9°F2.2°C 76% Calm Calm -- 30.27 in1025.1 mb 0.00 in0.0 mm 0.00 in/hr0.0 mm/hr 0.00 in0.0 mm
01:15 AM 43.2°F6.2°C 36.1°F2.3°C 76% Calm Calm -- 30.28 in1025.4 mb 0.00 in0.0 mm 0.00 in/hr0.0 mm/hr 0.00 in0.0 mm
01:00 AM 43.5°F6.4°C 36.1°F2.3°C 75% Calm Calm -- 30.28 in1025.4 mb 0.00 in0.0 mm 0.00 in/hr0.0 mm/hr 0.00 in0.0 mm
12:45 AM 43.7°F6.5°C 36.3°F2.4°C 75% Calm Calm -- 30.27 in1025.1 mb 0.00 in0.0 mm 0.00 in/hr0.0 mm/hr 0.00 in0.0 mm
12:30 AM 43.8°F6.6°C 36.0°F2.2°C 74% Calm Calm -- 30.26 in1024.7 mb 0.00 in0.0 mm 0.00 in/hr0.0 mm/hr 0.00 in0.0 mm
WeatherForYou.com, LLC is not responsible for any damages or problems caused by this service. Current weather conditions are obtained from the closest station including government and personal stations which may have varying degrees of accuracy. Weather forecasts are derived from the NOAA NDFD and obtained through HAMweather's Aeris Weather API. Like all things, this site belongs to Jesus Christ... He just trusts me to maintain it. If you have any questions or comments email webmaster@weatherforyou.com

Copyright © 2014, WeatherForYou.com LLC. All rights reserved.